Time;durP1;ratioP1;P1;durP2;ratioP2;P2;SDS_P1;SDS_P2;PMS_P1;PMS_P2;Temp;Humidity;BMP_temperature;BMP_pressure;BME280_temperature;BME280_humidity;BME280_pressure;Samples;Min_cycle;Max_cycle;Signal;HPM_P1;HPM_P2
2022/02/15 00:01:33;;;;;;;18.37;11.13;;;;;;;-1.52;76.77;95820.64;1721582;83;21151;-70
2022/02/15 00:03:59;;;;;;;17.83;9.80;;;;;;;-1.47;76.82;95816.91;1721687;83;20981;-70
2022/02/15 00:06:26;;;;;;;17.50;9.47;;;;;;;-1.55;76.64;95815.38;1721890;83;21075;-70
2022/02/15 00:08:52;;;;;;;19.60;11.37;;;;;;;-1.65;76.47;95810.74;1721796;82;21139;-70
2022/02/15 00:11:19;;;;;;;15.70;9.50;;;;;;;-1.64;76.66;95812.09;1721462;83;21048;-70
2022/02/15 00:13:46;;;;;;;14.83;8.93;;;;;;;-1.62;76.67;95808.24;1721589;83;21116;-70
2022/02/15 00:16:12;;;;;;;16.97;9.30;;;;;;;-1.55;76.63;95814.08;1722050;83;21025;-70
2022/02/15 00:18:39;;;;;;;15.43;9.37;;;;;;;-1.46;76.67;95807.00;1721820;83;21025;-70
2022/02/15 00:21:05;;;;;;;18.33;8.90;;;;;;;-1.52;76.41;95808.99;1721667;82;21079;-70
2022/02/15 00:23:32;;;;;;;15.97;8.07;;;;;;;-1.62;75.92;95812.12;1721902;83;20989;-70
2022/02/15 00:25:59;;;;;;;13.17;7.73;;;;;;;-1.73;76.49;95807.91;1721667;83;21032;-70
2022/02/15 00:28:25;;;;;;;11.77;7.03;;;;;;;-1.85;76.46;95812.69;1721729;83;21036;-70
2022/02/15 00:30:52;;;;;;;9.83;5.87;;;;;;;-1.94;77.28;95811.09;1721796;83;21518;-70
2022/02/15 00:33:19;;;;;;;9.73;5.67;;;;;;;-2.02;76.70;95809.13;1721742;83;21451;-70
2022/02/15 00:35:46;;;;;;;11.53;5.87;;;;;;;-2.07;76.99;95804.22;1722076;82;21024;-70
2022/02/15 00:38:13;;;;;;;10.10;6.10;;;;;;;-2.10;77.44;95796.37;1721790;83;21498;-70
2022/02/15 00:40:39;;;;;;;10.87;6.13;;;;;;;-2.15;76.83;95792.75;1721806;83;21060;-70
2022/02/15 00:43:06;;;;;;;10.17;6.80;;;;;;;-2.15;77.38;95791.88;1721715;82;21036;-70
2022/02/15 00:45:35;;;;;;;12.70;7.07;;;;;;;-2.09;78.31;95789.09;1721962;83;21108;-70
2022/02/15 00:48:03;;;;;;;17.23;10.07;;;;;;;-2.14;77.95;95787.16;1721830;83;21479;-70
2022/02/15 00:50:29;;;;;;;10.70;5.77;;;;;;;-2.24;78.52;95789.46;1721913;83;21028;-70
2022/02/15 00:52:56;;;;;;;11.10;6.67;;;;;;;-2.31;78.17;95786.20;1721547;83;21055;-70
2022/02/15 00:55:23;;;;;;;12.33;6.47;;;;;;;-2.34;78.17;95789.98;1721952;82;21507;-70
2022/02/15 00:57:49;;;;;;;18.40;8.87;;;;;;;-2.24;78.07;95785.59;1721513;83;21093;-70
2022/02/15 01:00:17;;;;;;;15.47;8.43;;;;;;;-2.20;78.14;95783.55;1721628;83;21026;-70
2022/02/15 01:02:46;;;;;;;18.83;9.60;;;;;;;-2.23;78.39;95778.70;1721755;82;21051;-70
2022/02/15 01:05:13;;;;;;;19.67;12.10;;;;;;;-2.27;78.41;95795.83;1721557;82;21158;-70
2022/02/15 01:07:40;;;;;;;22.40;11.53;;;;;;;-2.29;78.57;95794.02;1721712;83;20997;-70
2022/02/15 01:10:09;;;;;;;20.17;11.37;;;;;;;-2.31;78.29;95791.38;1721455;83;21024;-70
2022/02/15 01:12:35;;;;;;;11.70;7.47;;;;;;;-2.32;78.68;95779.67;1721640;83;21024;-70
2022/02/15 01:15:04;;;;;;;14.40;7.67;;;;;;;-2.37;78.10;95778.64;1721551;83;21076;-70
2022/02/15 01:17:31;;;;;;;17.13;8.90;;;;;;;-2.41;77.94;95773.38;1721778;82;21017;-70
2022/02/15 01:19:58;;;;;;;17.40;10.17;;;;;;;-2.37;78.81;95767.89;1721529;83;21084;-70
2022/02/15 01:22:24;;;;;;;14.40;7.77;;;;;;;-2.35;78.76;95771.41;1721550;83;20997;-70
2022/02/15 01:24:51;;;;;;;13.93;8.03;;;;;;;-2.30;78.51;95771.56;1721798;83;21072;-70
2022/02/15 01:27:17;;;;;;;17.67;8.77;;;;;;;-2.30;78.05;95762.52;1721734;83;21004;-70
2022/02/15 01:29:44;;;;;;;17.67;8.33;;;;;;;-2.24;78.05;95766.62;1721725;83;20985;-70
2022/02/15 01:32:11;;;;;;;19.67;10.30;;;;;;;-2.27;77.54;95762.23;1721731;83;21021;-70
2022/02/15 01:34:38;;;;;;;16.50;9.47;;;;;;;-2.36;78.70;95770.95;1721738;83;21044;-70
2022/02/15 01:37:06;;;;;;;25.87;13.10;;;;;;;-2.38;78.73;95771.73;1722034;83;21511;-70
2022/02/15 01:39:32;;;;;;;26.63;13.80;;;;;;;-2.33;78.84;95768.89;1722028;83;21016;-70
2022/02/15 01:42:01;;;;;;;19.47;10.33;;;;;;;-2.27;79.50;95769.08;1721625;83;21060;-70
2022/02/15 01:44:28;;;;;;;23.47;12.83;;;;;;;-2.19;78.59;95765.94;1693125;83;21001;-70
2022/02/15 01:46:55;;;;;;;21.17;12.60;;;;;;;-2.09;78.64;95764.53;1721825;83;21016;-70
2022/02/15 01:49:21;;;;;;;26.13;13.20;;;;;;;-2.08;79.47;95757.65;1721503;83;21044;-70
2022/02/15 01:51:49;;;;;;;22.77;12.40;;;;;;;-1.92;79.79;95750.83;1721680;83;21569;-70
2022/02/15 01:54:16;;;;;;;21.53;11.50;;;;;;;-1.81;79.42;95752.06;1721796;83;21068;-70
2022/02/15 01:56:43;;;;;;;24.30;14.23;;;;;;;-1.76;78.93;95753.50;1721798;83;21053;-70
2022/02/15 01:59:10;;;;;;;26.77;14.80;;;;;;;-1.71;79.05;95750.64;1721600;83;21021;-70
2022/02/15 02:01:37;;;;;;;27.40;15.30;;;;;;;-1.59;79.31;95752.70;1721459;83;21001;-70
2022/02/15 02:05:47;;;;;;;26.17;14.43;;;;;;;-1.50;78.46;95742.64;1721699;83;21109;-70
2022/02/15 02:06:34;;;;;;;23.80;13.20;;;;;;;-1.54;78.57;95741.69;1717496;83;21012;-70
2022/02/15 02:09:03;;;;;;;20.60;11.60;;;;;;;-1.55;78.72;95732.15;1721807;83;21020;-70
2022/02/15 02:11:31;;;;;;;17.47;10.17;;;;;;;-1.46;78.68;95736.73;1721494;83;21040;-70
2022/02/15 02:14:01;;;;;;;19.53;10.93;;;;;;;-1.42;78.40;95735.11;1720300;83;21044;-70
2022/02/15 02:16:32;;;;;;;18.40;9.93;;;;;;;-1.45;78.11;95738.91;1719999;83;21001;-70
2022/02/15 02:19:09;;;;;;;16.40;8.43;;;;;;;-1.58;77.87;95741.55;1721699;83;21550;-70
2022/02/15 02:21:37;;;;;;;21.93;11.03;;;;;;;-1.68;78.20;95740.38;1721884;83;21096;-70
2022/02/15 02:24:05;;;;;;;15.20;8.73;;;;;;;-1.78;78.14;95735.34;1721665;83;21013;-70
2022/02/15 02:26:33;;;;;;;18.50;10.90;;;;;;;-1.77;78.46;95743.97;1721729;83;21028;-70
2022/02/15 02:29:00;;;;;;;14.03;6.87;;;;;;;-1.78;78.95;95746.11;1721410;83;21056;-70
2022/02/15 02:31:28;;;;;;;23.13;10.20;;;;;;;-1.79;79.02;95750.80;1721365;83;21530;-70
2022/02/15 02:34:00;;;;;;;16.03;7.47;;;;;;;-1.88;78.53;95750.11;1720802;83;21042;-69
2022/02/15 02:36:27;;;;;;;18.93;10.40;;;;;;;-1.95;78.66;95755.91;1721485;82;21036;-69
2022/02/15 02:38:54;;;;;;;19.97;9.03;;;;;;;-2.02;79.30;95754.83;1721356;83;21072;-69
2022/02/15 02:41:21;;;;;;;16.37;8.60;;;;;;;-1.98;80.28;95741.59;1722027;83;20993;-69
2022/02/15 02:43:48;;;;;;;13.70;8.03;;;;;;;-1.97;80.26;95740.37;1721680;83;21057;-69
2022/02/15 02:46:14;;;;;;;16.77;10.00;;;;;;;-1.94;80.32;95730.92;1721831;83;21036;-69
2022/02/15 02:48:44;;;;;;;14.50;8.77;;;;;;;-1.93;79.79;95740.03;1721789;83;21471;-70
2022/02/15 02:51:10;;;;;;;18.87;10.27;;;;;;;-1.97;79.59;95745.54;1721679;82;21131;-69
2022/02/15 02:53:37;;;;;;;17.97;10.17;;;;;;;-1.91;79.75;95746.14;1721462;83;21076;-70
2022/02/15 02:56:05;;;;;;;19.77;10.43;;;;;;;-1.82;79.77;95754.59;1721651;83;21061;-70
2022/02/15 02:58:32;;;;;;;17.40;10.07;;;;;;;-1.86;79.88;95757.93;1721684;83;21004;-70
2022/02/15 03:00:59;;;;;;;19.37;10.83;;;;;;;-1.93;79.20;95757.27;1721753;83;21008;-70
2022/02/15 03:03:28;;;;;;;20.33;10.83;;;;;;;-2.00;79.05;95760.06;1721283;83;21037;-70
2022/02/15 03:05:57;;;;;;;18.83;10.03;;;;;;;-1.97;79.13;95754.98;1721859;83;21099;-70
2022/02/15 03:08:23;;;;;;;24.40;11.40;;;;;;;-1.91;78.88;95749.15;1721610;83;21069;-70
2022/02/15 03:10:50;;;;;;;19.87;10.70;;;;;;;-1.89;79.59;95750.05;1721775;83;21451;-70
2022/02/15 03:13:21;;;;;;;16.43;9.60;;;;;;;-1.83;79.53;95748.55;1710340;83;21041;-70
2022/02/15 03:15:48;;;;;;;19.27;9.50;;;;;;;-1.86;79.24;95744.58;1721578;82;20970;-69
2022/02/15 03:18:14;;;;;;;18.27;9.37;;;;;;;-1.81;79.50;95740.42;1721553;83;21132;-69
2022/02/15 03:20:41;;;;;;;15.73;8.83;;;;;;;-1.82;78.98;95751.58;1721747;82;20996;-70
2022/02/15 03:23:10;;;;;;;18.53;9.50;;;;;;;-1.85;78.73;95751.48;1721459;83;21041;-69
2022/02/15 03:25:36;;;;;;;19.67;10.97;;;;;;;-1.82;79.14;95754.59;1721729;83;21000;-70
2022/02/15 03:28:04;;;;;;;19.33;10.43;;;;;;;-1.89;79.32;95738.41;1721487;83;21036;-70
2022/02/15 03:30:31;;;;;;;18.60;11.17;;;;;;;-1.92;79.84;95746.08;1721676;83;21071;-70
2022/02/15 03:32:58;;;;;;;18.40;10.93;;;;;;;-1.92;79.79;95748.24;1721666;83;21024;-70
2022/02/15 03:35:25;;;;;;;19.40;10.47;;;;;;;-1.87;79.92;95749.27;1716265;83;21064;-70
2022/02/15 03:37:56;;;;;;;18.90;10.27;;;;;;;-1.87;79.18;95747.97;1715716;84;21092;-70
2022/02/15 03:43:04;;;;;;;18.40;10.13;;;;;;;-1.83;79.47;95738.63;1716363;83;21129;-70
2022/02/15 03:43:06;;;;;;;18.57;9.87;;;;;;;-1.74;79.47;95736.30;1711887;84;21033;-70
2022/02/15 03:45:36;;;;;;;18.20;10.20;;;;;;;-1.75;79.00;95743.61;1716333;84;20993;-69
2022/02/15 03:48:10;;;;;;;15.47;8.40;;;;;;;-1.82;79.30;95738.65;1716028;84;21041;-70
2022/02/15 03:50:37;;;;;;;21.77;11.57;;;;;;;-1.80;79.21;95736.99;1716115;84;21058;-70
2022/02/15 03:53:05;;;;;;;22.30;11.47;;;;;;;-1.80;78.95;95740.00;1716634;84;21021;-70
2022/02/15 03:55:32;;;;;;;20.10;11.60;;;;;;;-1.77;79.14;95743.97;1716047;84;21463;-70
2022/02/15 03:57:59;;;;;;;21.97;12.17;;;;;;;-1.88;79.02;95750.53;1716528;83;21013;-70
2022/02/15 04:00:26;;;;;;;21.77;11.63;;;;;;;-1.92;78.98;95751.25;1716048;84;21065;-69
2022/02/15 04:02:57;;;;;;;24.43;11.57;;;;;;;-1.90;78.84;95751.77;1715646;84;21543;-69
2022/02/15 04:05:24;;;;;;;22.13;11.63;;;;;;;-1.99;78.69;95752.75;1716932;83;21037;-69
2022/02/15 04:07:51;;;;;;;22.90;12.93;;;;;;;-2.05;79.01;95757.74;1716193;83;21018;-69
2022/02/15 04:10:19;;;;;;;20.87;11.17;;;;;;;-1.98;79.01;95760.99;1716218;83;21048;-70
2022/02/15 04:12:47;;;;;;;20.53;11.90;;;;;;;-1.87;79.42;95754.44;1716626;83;21048;-70
2022/02/15 04:15:15;;;;;;;20.00;11.53;;;;;;;-1.88;79.00;95753.12;1716276;83;21025;-70
2022/02/15 04:17:44;;;;;;;20.27;12.40;;;;;;;-1.90;79.08;95754.34;1715884;84;21013;-70
2022/02/15 04:20:13;;;;;;;21.60;12.60;;;;;;;-1.85;78.98;95732.52;1716691;83;21060;-70
2022/02/15 04:22:42;;;;;;;25.00;13.20;;;;;;;-1.83;79.43;95741.20;1716427;84;21033;-71
2022/02/15 04:25:10;;;;;;;35.83;15.90;;;;;;;-1.80;78.90;95746.47;1716319;83;21033;-72
2022/02/15 04:27:38;;;;;;;30.40;16.77;;;;;;;-1.86;78.80;95746.29;1716359;83;21025;-71
2022/02/15 04:30:08;;;;;;;35.63;16.30;;;;;;;-1.80;79.41;95749.05;1686116;84;21522;-70
2022/02/15 04:32:35;;;;;;;32.57;14.03;;;;;;;-1.73;79.25;95751.42;1686207;84;20993;-71
2022/02/15 04:35:03;;;;;;;26.33;14.43;;;;;;;-1.76;78.76;95740.15;1716322;83;21045;-71
2022/02/15 04:37:29;;;;;;;24.03;12.67;;;;;;;-1.82;78.85;95739.94;1716210;83;21032;-71
2022/02/15 04:39:56;;;;;;;27.80;13.67;;;;;;;-1.76;79.07;95742.73;1716572;84;21032;-71
2022/02/15 04:42:24;;;;;;;24.87;12.40;;;;;;;-1.75;78.87;95739.30;1716688;83;21053;-71
2022/02/15 04:44:52;;;;;;;18.07;10.43;;;;;;;-1.71;79.03;95750.64;1715867;84;21013;-71
2022/02/15 04:47:21;;;;;;;15.17;9.07;;;;;;;-1.62;79.20;95747.45;1715115;84;21028;-71
2022/02/15 04:49:48;;;;;;;16.37;8.50;;;;;;;-1.55;78.77;95749.39;1716345;84;21515;-71
2022/02/15 04:52:14;;;;;;;20.47;10.50;;;;;;;-1.53;78.47;95760.67;1715982;84;21076;-73
2022/02/15 04:54:42;;;;;;;16.23;9.10;;;;;;;-1.53;78.87;95751.61;1716426;83;21476;-72
2022/02/15 04:57:08;;;;;;;16.73;9.60;;;;;;;-1.54;79.20;95753.72;1716471;83;21511;-73
2022/02/15 04:59:37;;;;;;;9.33;4.77;;;;;;;-1.52;78.81;95754.65;1715922;84;21040;-73
2022/02/15 05:02:04;;;;;;;14.00;8.70;;;;;;;-1.47;78.89;95752.20;1716452;84;21503;-73
2022/02/15 05:04:50;;;;;;;21.97;9.73;;;;;;;-1.52;78.72;95750.77;1716429;83;20997;-73
2022/02/15 05:07:19;;;;;;;20.60;10.23;;;;;;;-1.50;79.26;95755.58;1686676;84;21084;-74
2022/02/15 05:09:46;;;;;;;21.60;11.30;;;;;;;-1.43;78.95;95754.06;1716430;83;21056;-73
2022/02/15 05:12:15;;;;;;;33.37;15.23;;;;;;;-1.36;78.90;95748.21;1716398;83;21013;-73
2022/02/15 05:14:42;;;;;;;32.40;15.37;;;;;;;-1.32;78.96;95748.78;1716106;83;21076;-73
2022/02/15 05:17:10;;;;;;;26.17;13.10;;;;;;;-1.29;79.20;95750.16;1716382;83;21013;-73
2022/02/15 05:19:39;;;;;;;24.27;12.23;;;;;;;-1.26;79.19;95745.48;1716168;83;21047;-74
2022/02/15 05:22:07;;;;;;;18.53;9.37;;;;;;;-1.25;78.67;95744.67;1716378;84;21523;-74
2022/02/15 05:24:45;;;;;;;53.97;23.13;;;;;;;-1.26;78.56;95752.86;1716270;84;20997;-74
2022/02/15 05:27:13;;;;;;;51.43;25.07;;;;;;;-1.25;78.90;95758.48;1716265;83;21060;-74
2022/02/15 05:29:43;;;;;;;24.57;13.63;;;;;;;-1.15;79.51;95761.80;1715985;84;21020;-73
2022/02/15 05:32:29;;;;;;;34.27;17.17;;;;;;;-1.14;78.91;95770.44;1716236;84;21147;-73
2022/02/15 05:34:57;;;;;;;34.80;17.63;;;;;;;-1.16;79.06;95772.09;1719472;83;21041;-73
2022/02/15 05:37:24;;;;;;;28.83;15.57;;;;;;;-1.12;79.34;95772.23;1721791;83;21083;-74
2022/02/15 05:39:51;;;;;;;42.03;20.73;;;;;;;-1.07;79.13;95781.86;1721573;83;21539;-73
2022/02/15 05:42:32;;;;;;;37.10;16.33;;;;;;;-0.98;79.07;95779.55;1719669;83;21551;-73
2022/02/15 05:45:00;;;;;;;55.30;25.27;;;;;;;-0.98;78.79;95776.95;1721602;83;21020;-73
2022/02/15 05:47:26;;;;;;;31.80;16.77;;;;;;;-0.97;78.59;95780.86;1721949;83;21024;-72
2022/02/15 05:52:42;;;;;;;23.10;10.67;;;;;;;-0.89;78.29;95777.20;1721890;83;20992;-72
2022/02/15 05:55:11;;;;;;;39.93;21.13;;;;;;;-0.92;78.38;95788.34;1720783;83;21056;-71
2022/02/15 05:57:38;;;;;;;45.83;23.47;;;;;;;-0.92;78.86;95782.30;1720464;83;21104;-71
2022/02/15 06:00:14;;;;;;;36.87;18.90;;;;;;;-0.80;79.09;95781.77;1720836;83;21558;-73
2022/02/15 06:02:47;;;;;;;33.27;15.87;;;;;;;-0.79;78.83;95781.80;1720902;83;21138;-75
2022/02/15 06:05:15;;;;;;;39.33;20.97;;;;;;;-0.79;78.87;95779.20;1720963;83;21536;-74
2022/02/15 06:07:44;;;;;;;43.07;23.23;;;;;;;-0.72;78.71;95776.38;1712686;83;21532;-78
2022/02/15 06:10:12;;;;;;;40.37;21.60;;;;;;;-0.70;78.54;95773.00;1710424;84;22345;-76
2022/02/15 06:12:40;;;;;;;28.77;16.10;;;;;;;-0.66;79.04;95773.55;1714037;84;21109;-80
2022/02/15 06:15:08;;;;;;;29.10;16.93;;;;;;;-0.62;78.84;95771.91;1713870;84;21504;-78
2022/02/15 06:17:42;;;;;;;21.77;12.63;;;;;;;-0.54;79.16;95772.11;1727321;83;21081;-76
2022/02/15 06:20:11;;;;;;;22.57;12.37;;;;;;;-0.40;79.24;95775.05;1732202;83;21002;-70
2022/02/15 06:22:40;;;;;;;30.37;15.70;;;;;;;-0.33;78.06;95780.47;1688211;84;21022;-72
2022/02/15 06:25:08;;;;;;;48.77;23.93;;;;;;;-0.31;77.61;95783.95;1731222;83;21543;-73
2022/02/15 06:27:40;;;;;;;37.20;21.73;;;;;;;-0.27;77.35;95793.58;1698300;84;21579;-72
2022/02/15 06:30:26;;;;;;;54.67;28.40;;;;;;;-0.23;77.48;95798.41;1731898;83;21026;-75
2022/02/15 06:32:54;;;;;;;43.73;22.50;;;;;;;-0.20;77.32;95799.81;1700316;84;22269;-73
2022/02/15 06:35:21;;;;;;;35.67;20.53;;;;;;;-0.24;77.70;95789.77;1733413;82;21049;-71
2022/02/15 06:37:51;;;;;;;32.67;17.13;;;;;;;-0.16;77.97;95789.09;1702619;84;21057;-75
2022/02/15 06:40:20;;;;;;;46.27;23.40;;;;;;;-0.06;78.33;95789.35;1718541;83;21019;-73
2022/02/15 06:42:49;;;;;;;40.07;23.43;;;;;;;0.00;77.83;95787.36;1704531;84;21033;-72
2022/02/15 06:45:16;;;;;;;30.00;17.00;;;;;;;0.05;77.50;95787.05;1718066;83;21560;-73
2022/02/15 06:47:44;;;;;;;31.83;18.17;;;;;;;0.15;77.45;95781.64;1718271;83;20985;-73
2022/02/15 06:50:11;;;;;;;24.57;14.77;;;;;;;0.24;77.06;95779.28;1727225;83;21058;-72
2022/02/15 06:52:49;;;;;;;39.60;21.50;;;;;;;0.26;76.39;95789.28;1725576;83;21075;-73
2022/02/15 06:55:18;;;;;;;43.90;22.93;;;;;;;0.29;76.01;95786.75;1726403;83;21047;-72
2022/02/15 06:57:44;;;;;;;50.73;27.83;;;;;;;0.38;75.99;95785.69;1726917;82;21501;-74
2022/02/15 07:00:14;;;;;;;36.90;21.20;;;;;;;0.43;75.38;95788.39;1726938;83;21007;-71
2022/02/15 07:02:41;;;;;;;40.80;22.57;;;;;;;0.50;74.91;95788.97;1726332;83;22225;-76
2022/02/15 07:05:10;;;;;;;39.33;22.97;;;;;;;0.60;75.24;95787.46;1725547;83;21536;-71
2022/02/15 07:07:38;;;;;;;48.80;29.63;;;;;;;0.69;74.96;95794.60;1725381;82;21081;-74
2022/02/15 07:10:09;;;;;;;36.87;22.97;;;;;;;0.71;74.97;95787.30;1726542;83;21082;-77
2022/02/15 07:12:37;;;;;;;47.80;25.67;;;;;;;0.80;75.17;95793.11;1727414;82;21063;-75
2022/02/15 07:15:07;;;;;;;40.93;22.60;;;;;;;0.80;74.75;95799.17;1722367;83;21150;-79
2022/02/15 07:17:37;;;;;;;37.90;21.47;;;;;;;0.72;74.77;95798.56;1725778;83;21492;-76
2022/02/15 07:20:07;;;;;;;44.20;22.73;;;;;;;0.70;74.97;95800.23;1726571;82;21026;-75
2022/02/15 07:22:48;;;;;;;53.90;25.30;;;;;;;0.66;75.55;95798.44;1696230;83;21567;-74
2022/02/15 07:25:31;;;;;;;46.28;26.12;;;;;;;0.64;75.94;95801.85;1728482;82;21030;-72
2022/02/15 07:28:01;;;;;;;36.67;20.23;;;;;;;0.62;76.21;95799.64;1718570;83;21062;-71
2022/02/15 07:30:29;;;;;;;37.20;21.43;;;;;;;0.68;76.39;95799.31;1726999;82;21564;-73
2022/02/15 07:32:58;;;;;;;33.07;19.80;;;;;;;0.71;76.20;95799.41;1726668;82;21160;-77
2022/02/15 07:35:25;;;;;;;40.83;21.00;;;;;;;0.69;76.72;95799.37;1723836;82;21047;-77
2022/02/15 07:37:52;;;;;;;37.53;22.17;;;;;;;0.77;77.00;95793.05;1704950;83;20987;-75
2022/02/15 07:40:21;;;;;;;41.10;23.27;;;;;;;0.76;76.89;95792.17;1703282;83;21571;-75
2022/02/15 07:42:50;;;;;;;47.10;28.50;;;;;;;0.69;76.70;95795.47;1702358;84;21064;-77
2022/02/15 07:45:18;;;;;;;46.87;27.83;;;;;;;0.65;77.18;95788.44;1753213;82;20998;-74
2022/02/15 07:47:46;;;;;;;44.33;25.47;;;;;;;0.66;77.79;95791.52;1754095;82;21125;-73
2022/02/15 07:50:14;;;;;;;42.37;27.37;;;;;;;0.69;78.68;95783.78;1753399;82;21412;-73
2022/02/15 07:52:48;;;;;;;44.93;25.57;;;;;;;0.76;78.49;95783.52;1754187;82;20983;-72
2022/02/15 07:55:14;;;;;;;34.67;20.83;;;;;;;0.82;78.75;95778.01;1753826;82;21049;-73
2022/02/15 07:57:41;;;;;;;37.13;20.90;;;;;;;0.84;78.62;95782.82;1754281;82;21052;-76
2022/02/15 08:00:09;;;;;;;35.77;21.87;;;;;;;0.89;78.77;95784.22;1754000;81;21030;-72
2022/02/15 08:02:38;;;;;;;34.77;21.10;;;;;;;0.91;79.33;95782.55;1753224;81;21156;-77
2022/02/15 08:05:05;;;;;;;32.67;19.00;;;;;;;0.95;79.08;95784.77;1754546;81;21025;-71
2022/02/15 08:07:33;;;;;;;34.80;22.63;;;;;;;0.97;78.79;95784.39;1754086;82;21094;-72
2022/02/15 08:10:02;;;;;;;43.90;23.83;;;;;;;0.94;78.65;95792.13;1754102;82;21033;-69
2022/02/15 08:12:28;;;;;;;35.87;22.90;;;;;;;0.96;79.46;95789.11;1753538;82;21133;-73
2022/02/15 08:14:55;;;;;;;36.63;21.60;;;;;;;1.08;79.55;95791.97;1754124;82;21042;-78
2022/02/15 08:17:22;;;;;;;37.47;22.20;;;;;;;1.17;79.38;95783.08;1728600;81;21019;-75
2022/02/15 08:19:49;;;;;;;42.73;24.67;;;;;;;1.23;78.79;95782.32;1724248;82;21119;-72
2022/02/15 08:22:17;;;;;;;40.47;23.87;;;;;;;1.32;78.64;95781.64;1726865;83;21038;-74
2022/02/15 08:24:45;;;;;;;49.43;26.23;;;;;;;1.38;78.32;95774.82;1726074;83;20987;-75
2022/02/15 08:27:11;;;;;;;46.53;25.40;;;;;;;1.58;79.00;95778.23;1710188;83;21059;-81
2022/02/15 08:29:39;;;;;;;49.20;28.97;;;;;;;1.73;78.74;95787.20;1709217;84;21007;-71
2022/02/15 08:32:07;;;;;;;51.33;26.97;;;;;;;1.88;77.47;95784.43;1708767;84;21007;-77
2022/02/15 08:34:35;;;;;;;79.93;50.43;;;;;;;2.07;77.74;95785.21;1710784;83;20979;-71
2022/02/15 08:37:02;;;;;;;50.10;27.40;;;;;;;2.19;76.69;95789.73;1715424;84;20999;-70
2022/02/15 08:39:30;;;;;;;49.63;25.43;;;;;;;2.25;76.80;95778.13;1716309;84;21030;-71
2022/02/15 08:42:04;;;;;;;45.87;24.63;;;;;;;2.46;77.40;95783.23;1714949;83;21155;-72
2022/02/15 08:44:27;;;;;;;43.03;25.10;;;;;;;2.58;77.15;95782.12;1715893;82;21888;-69
2022/02/15 08:46:55;;;;;;;52.03;26.30;;;;;;;2.71;76.50;95771.45;1709152;84;21122;-68
2022/02/15 08:49:22;;;;;;;42.33;22.80;;;;;;;2.84;76.66;95773.80;1713693;84;21568;-72
2022/02/15 08:51:48;;;;;;;55.63;30.23;;;;;;;2.87;76.42;95777.31;1731729;81;21604;-71
2022/02/15 08:54:15;;;;;;;47.67;26.40;;;;;;;2.90;75.18;95761.75;1709639;83;21008;-72
2022/02/15 08:56:41;;;;;;;41.97;24.43;;;;;;;2.93;75.45;95758.30;1709471;83;21077;-72
2022/02/15 08:59:07;;;;;;;40.57;23.27;;;;;;;2.84;74.68;95762.94;1705258;84;21078;-73
2022/02/15 09:01:34;;;;;;;43.87;23.20;;;;;;;2.76;74.70;95764.58;1708983;84;21078;-71
2022/02/15 09:04:00;;;;;;;43.67;24.70;;;;;;;2.75;75.38;95775.43;1706451;83;21098;-72
2022/02/15 09:06:27;;;;;;;46.20;26.70;;;;;;;2.85;75.78;95775.14;1705159;84;21035;-76
2022/02/15 09:08:54;;;;;;;43.53;24.83;;;;;;;3.09;75.56;95771.10;1704876;84;21085;-72
2022/02/15 09:11:20;;;;;;;48.57;25.77;;;;;;;3.22;74.80;95764.75;1705630;84;21417;-71
2022/02/15 09:13:47;;;;;;;42.60;25.90;;;;;;;3.24;74.12;95781.73;1705412;84;21062;-72
2022/02/15 09:16:14;;;;;;;48.57;24.40;;;;;;;3.25;73.93;95763.50;1704659;84;21073;-71
2022/02/15 09:18:40;;;;;;;34.40;19.43;;;;;;;3.37;74.05;95767.10;1704170;84;21130;-72
2022/02/15 09:21:07;;;;;;;38.90;22.50;;;;;;;3.34;73.28;95772.29;1705756;84;21021;-73
2022/02/15 09:23:33;;;;;;;38.87;21.27;;;;;;;3.46;73.98;95766.78;1705342;83;21157;-69
2022/02/15 09:26:00;;;;;;;35.07;21.00;;;;;;;3.58;73.77;95769.97;1705609;83;20995;-70
2022/02/15 09:28:27;;;;;;;36.70;20.90;;;;;;;3.77;73.89;95770.16;1705611;83;21031;-69
2022/02/15 09:30:54;;;;;;;31.70;19.40;;;;;;;4.02;74.34;95769.98;1705179;84;21523;-71
2022/02/15 09:33:23;;;;;;;32.60;19.13;;;;;;;4.40;73.81;95769.44;1705250;84;21054;-70
2022/02/15 09:35:50;;;;;;;33.40;18.23;;;;;;;4.44;72.79;95763.39;1716489;83;21106;-72
2022/02/15 09:38:17;;;;;;;32.10;18.40;;;;;;;4.44;72.75;95766.00;1731396;83;21063;-72
2022/02/15 09:40:45;;;;;;;30.27;19.30;;;;;;;4.38;72.33;95758.09;1731171;83;21000;-71
2022/02/15 09:43:11;;;;;;;32.33;18.77;;;;;;;4.30;72.31;95747.59;1730401;82;21121;-71
2022/02/15 09:45:39;;;;;;;28.70;16.40;;;;;;;4.21;72.58;95755.34;1730815;83;21630;-70
2022/02/15 09:48:11;;;;;;;35.00;18.47;;;;;;;4.11;73.36;95747.87;1731094;82;21556;-77
2022/02/15 09:50:38;;;;;;;35.45;20.02;;;;;;;4.18;73.39;95750.09;1731129;82;21576;-75
2022/02/15 09:53:05;;;;;;;32.60;20.13;;;;;;;4.18;73.70;95743.56;1705882;83;21045;-72
2022/02/15 09:55:31;;;;;;;27.17;16.80;;;;;;;4.34;74.16;95740.23;1730782;82;21758;-73
2022/02/15 09:57:59;;;;;;;28.10;18.83;;;;;;;4.47;73.15;95742.06;1731462;83;21049;-70
2022/02/15 10:00:26;;;;;;;24.27;16.70;;;;;;;4.53;72.37;95743.40;1733555;83;20979;-71
2022/02/15 10:02:53;;;;;;;31.13;19.37;;;;;;;4.55;73.21;95746.91;1703273;84;20959;-72
2022/02/15 10:05:22;;;;;;;25.50;15.87;;;;;;;4.77;73.39;95735.30;1726921;82;20998;-71
2022/02/15 10:07:56;;;;;;;28.07;18.00;;;;;;;5.06;73.04;95728.91;1702822;84;21854;-71
2022/02/15 10:10:36;;;;;;;28.73;17.87;;;;;;;5.32;72.65;95721.62;1716205;83;21090;-71
2022/02/15 10:13:11;;;;;;;27.30;17.20;;;;;;;5.58;72.10;95721.70;1704396;83;20955;-72
2022/02/15 10:15:40;;;;;;;25.57;15.43;;;;;;;5.86;71.20;95727.87;1703982;84;20999;-70
2022/02/15 10:18:25;;;;;;;32.67;18.03;;;;;;;5.93;70.62;95715.67;1702397;84;20992;-71
2022/02/15 10:20:57;;;;;;;24.73;15.37;;;;;;;5.97;70.02;95701.31;1723988;83;21453;-71
2022/02/15 10:23:29;;;;;;;24.83;16.00;;;;;;;6.11;69.89;95701.30;1723175;83;20998;-71
2022/02/15 10:25:58;;;;;;;24.63;17.42;;;;;;;6.30;69.64;95703.50;1700067;84;21504;-71
2022/02/15 10:28:28;;;;;;;24.17;15.73;;;;;;;6.71;69.85;95697.33;1716036;84;21023;-71
2022/02/15 10:30:59;;;;;;;27.80;16.67;;;;;;;6.80;67.73;95695.98;1716384;84;21457;-70
2022/02/15 10:33:38;;;;;;;25.97;17.83;;;;;;;6.99;68.11;95699.89;1731183;83;21050;-70
2022/02/15 10:36:14;;;;;;;29.00;17.10;;;;;;;7.14;67.47;95705.08;1717393;83;21537;-71
2022/02/15 10:38:53;;;;;;;25.63;16.50;;;;;;;7.48;65.88;95695.73;1700405;84;21047;-71
2022/02/15 10:41:21;;;;;;;27.37;16.27;;;;;;;7.24;65.24;95694.98;1700756;84;20992;-70
2022/02/15 10:43:54;;;;;;;34.60;15.93;;;;;;;6.82;65.27;95694.67;1700852;84;21563;-71
2022/02/15 10:46:24;;;;;;;30.08;17.92;;;;;;;6.65;66.09;95696.02;1701215;84;20979;-70
2022/02/15 10:48:53;;;;;;;28.60;18.20;;;;;;;6.57;66.60;95713.06;1701154;84;21023;-71
2022/02/15 10:51:21;;;;;;;26.80;18.07;;;;;;;6.44;66.34;95706.10;1700964;84;21023;-71
2022/02/15 10:53:48;;;;;;;29.17;18.67;;;;;;;6.48;67.37;95702.17;1700083;84;21027;-70
2022/02/15 10:56:15;;;;;;;30.93;18.53;;;;;;;6.35;67.54;95699.54;1700704;84;21023;-71
2022/02/15 10:58:42;;;;;;;27.47;18.37;;;;;;;6.29;67.97;95699.12;1700839;84;21027;-70
2022/02/15 11:01:12;;;;;;;27.27;18.40;;;;;;;6.33;67.88;95702.63;1700603;84;21095;-70
2022/02/15 11:03:42;;;;;;;28.73;17.27;;;;;;;6.30;68.76;95698.27;1700731;84;21079;-70
2022/02/15 11:06:09;;;;;;;28.37;16.50;;;;;;;6.30;68.58;95696.95;1701279;84;21019;-71
2022/02/15 11:08:38;;;;;;;29.10;17.40;;;;;;;6.21;68.82;95701.73;1701476;84;21039;-70
2022/02/15 11:11:13;;;;;;;29.33;17.63;;;;;;;6.17;69.03;95696.05;1701187;84;21050;-70
2022/02/15 11:13:40;;;;;;;33.43;17.03;;;;;;;6.16;69.33;95702.63;1701491;84;21513;-70
2022/02/15 11:16:12;;;;;;;25.53;15.27;;;;;;;6.11;69.00;95697.38;1701250;84;21031;-70
2022/02/15 11:18:40;;;;;;;32.03;17.83;;;;;;;5.98;69.94;95701.73;1701245;84;21111;-70
2022/02/15 11:21:10;;;;;;;29.80;17.80;;;;;;;5.96;69.21;95706.09;1701413;84;21521;-70
2022/02/15 11:23:40;;;;;;;29.73;18.87;;;;;;;5.99;69.12;95702.16;1700104;84;21548;-71
2022/02/15 11:26:13;;;;;;;35.63;19.00;;;;;;;6.05;69.23;95694.33;1701281;84;20984;-71
2022/02/15 11:28:51;;;;;;;28.23;17.87;;;;;;;6.00;69.16;95695.20;1701500;84;21533;-71
2022/02/15 11:31:31;;;;;;;32.37;20.50;;;;;;;6.00;69.33;95694.75;1699492;84;21027;-71